sensor_id;sensor_type;location;lat;lon;timestamp;pressure;altitude;pressure_sealevel;temperature
24278;BMP280;12394;42.692;23.314;2024-02-26T00:02:22;94573.03;;;9.72
24278;BMP280;12394;42.692;23.314;2024-02-26T00:04:48;94568.28;;;9.60
24278;BMP280;12394;42.692;23.314;2024-02-26T00:07:13;94561.94;;;9.61
24278;BMP280;12394;42.692;23.314;2024-02-26T00:09:39;94548.66;;;9.48
24278;BMP280;12394;42.692;23.314;2024-02-26T00:12:04;94553.03;;;9.55
24278;BMP280;12394;42.692;23.314;2024-02-26T00:14:31;94554.91;;;9.54
24278;BMP280;12394;42.692;23.314;2024-02-26T00:16:56;94546.00;;;9.52
24278;BMP280;12394;42.692;23.314;2024-02-26T00:19:22;94551.19;;;9.55
24278;BMP280;12394;42.692;23.314;2024-02-26T00:21:48;94541.16;;;9.50
24278;BMP280;12394;42.692;23.314;2024-02-26T00:24:13;94555.59;;;9.62
24278;BMP280;12394;42.692;23.314;2024-02-26T00:26:39;94548.50;;;9.62
24278;BMP280;12394;42.692;23.314;2024-02-26T00:29:04;94531.03;;;9.56
24278;BMP280;12394;42.692;23.314;2024-02-26T00:31:30;94536.09;;;9.70
24278;BMP280;12394;42.692;23.314;2024-02-26T00:33:56;94541.34;;;9.70
24278;BMP280;12394;42.692;23.314;2024-02-26T00:36:21;94531.06;;;9.52
24278;BMP280;12394;42.692;23.314;2024-02-26T00:38:47;94542.97;;;9.57
24278;BMP280;12394;42.692;23.314;2024-02-26T00:41:16;94539.97;;;9.55
24278;BMP280;12394;42.692;23.314;2024-02-26T00:43:42;94533.25;;;9.57
24278;BMP280;12394;42.692;23.314;2024-02-26T00:46:08;94526.50;;;9.60
24278;BMP280;12394;42.692;23.314;2024-02-26T00:48:33;94525.81;;;9.56
24278;BMP280;12394;42.692;23.314;2024-02-26T00:50:58;94530.28;;;9.55
24278;BMP280;12394;42.692;23.314;2024-02-26T00:53:24;94527.63;;;9.59
24278;BMP280;12394;42.692;23.314;2024-02-26T00:55:50;94524.25;;;9.62
24278;BMP280;12394;42.692;23.314;2024-02-26T00:58:16;94505.28;;;9.54
24278;BMP280;12394;42.692;23.314;2024-02-26T01:00:42;94508.97;;;9.60
24278;BMP280;12394;42.692;23.314;2024-02-26T01:03:07;94513.03;;;9.65
24278;BMP280;12394;42.692;23.314;2024-02-26T01:05:33;94519.38;;;9.67
24278;BMP280;12394;42.692;23.314;2024-02-26T01:07:59;94514.50;;;9.66
24278;BMP280;12394;42.692;23.314;2024-02-26T01:10:24;94510.03;;;9.66
24278;BMP280;12394;42.692;23.314;2024-02-26T01:12:50;94493.31;;;9.60
24278;BMP280;12394;42.692;23.314;2024-02-26T01:15:15;94504.75;;;9.70
24278;BMP280;12394;42.692;23.314;2024-02-26T01:17:41;94508.13;;;9.70
24278;BMP280;12394;42.692;23.314;2024-02-26T01:20:07;94510.38;;;9.68
24278;BMP280;12394;42.692;23.314;2024-02-26T01:22:34;94512.22;;;9.71
24278;BMP280;12394;42.692;23.314;2024-02-26T01:24:59;94504.03;;;9.69
24278;BMP280;12394;42.692;23.314;2024-02-26T01:27:25;94510.78;;;9.67
24278;BMP280;12394;42.692;23.314;2024-02-26T01:29:52;94511.53;;;9.67
24278;BMP280;12394;42.692;23.314;2024-02-26T01:32:18;94510.75;;;9.70
24278;BMP280;12394;42.692;23.314;2024-02-26T01:34:45;94492.19;;;9.61
24278;BMP280;12394;42.692;23.314;2024-02-26T01:37:10;94505.88;;;9.69
24278;BMP280;12394;42.692;23.314;2024-02-26T01:39:35;94497.75;;;9.63
24278;BMP280;12394;42.692;23.314;2024-02-26T01:42:01;94491.81;;;9.63
24278;BMP280;12394;42.692;23.314;2024-02-26T01:44:27;94498.06;;;9.69
24278;BMP280;12394;42.692;23.314;2024-02-26T01:46:53;94494.78;;;9.61
24278;BMP280;12394;42.692;23.314;2024-02-26T01:49:19;94500.28;;;9.70
24278;BMP280;12394;42.692;23.314;2024-02-26T01:51:45;94497.69;;;9.70
24278;BMP280;12394;42.692;23.314;2024-02-26T01:54:11;94500.28;;;9.70
24278;BMP280;12394;42.692;23.314;2024-02-26T01:56:38;94488.31;;;9.73
24278;BMP280;12394;42.692;23.314;2024-02-26T01:59:05;94481.63;;;9.68
24278;BMP280;12394;42.692;23.314;2024-02-26T02:01:31;94492.06;;;9.72
24278;BMP280;12394;42.692;23.314;2024-02-26T02:03:59;94494.69;;;9.72
24278;BMP280;12394;42.692;23.314;2024-02-26T02:06:25;94494.91;;;9.85
24278;BMP280;12394;42.692;23.314;2024-02-26T02:08:50;94492.25;;;9.88
24278;BMP280;12394;42.692;23.314;2024-02-26T02:11:16;94490.81;;;9.83
24278;BMP280;12394;42.692;23.314;2024-02-26T02:13:42;94490.84;;;9.80
24278;BMP280;12394;42.692;23.314;2024-02-26T02:16:08;94484.53;;;9.77
24278;BMP280;12394;42.692;23.314;2024-02-26T02:18:34;94455.69;;;9.54
24278;BMP280;12394;42.692;23.314;2024-02-26T02:21:00;94478.28;;;9.71
24278;BMP280;12394;42.692;23.314;2024-02-26T02:23:25;94490.59;;;9.71
24278;BMP280;12394;42.692;23.314;2024-02-26T02:25:52;94480.94;;;9.64
24278;BMP280;12394;42.692;23.314;2024-02-26T02:28:18;94478.81;;;9.56
24278;BMP280;12394;42.692;23.314;2024-02-26T02:30:44;94470.53;;;9.61
24278;BMP280;12394;42.692;23.314;2024-02-26T02:33:10;94492.50;;;9.67
24278;BMP280;12394;42.692;23.314;2024-02-26T02:35:37;94475.38;;;9.62
24278;BMP280;12394;42.692;23.314;2024-02-26T02:38:03;94481.69;;;9.65
24278;BMP280;12394;42.692;23.314;2024-02-26T02:40:28;94485.41;;;9.67
24278;BMP280;12394;42.692;23.314;2024-02-26T02:42:54;94488.03;;;9.67
24278;BMP280;12394;42.692;23.314;2024-02-26T02:45:19;94494.03;;;9.95
24278;BMP280;12394;42.692;23.314;2024-02-26T02:47:45;94483.66;;;9.88
24278;BMP280;12394;42.692;23.314;2024-02-26T02:50:10;94492.72;;;9.79
24278;BMP280;12394;42.692;23.314;2024-02-26T02:52:36;94497.56;;;9.81
24278;BMP280;12394;42.692;23.314;2024-02-26T02:55:01;94499.81;;;9.79
24278;BMP280;12394;42.692;23.314;2024-02-26T02:57:27;94497.94;;;9.79
24278;BMP280;12394;42.692;23.314;2024-02-26T02:59:53;94499.81;;;9.79
24278;BMP280;12394;42.692;23.314;2024-02-26T03:02:18;94489.47;;;9.72
24278;BMP280;12394;42.692;23.314;2024-02-26T03:04:43;94498.66;;;9.83
24278;BMP280;12394;42.692;23.314;2024-02-26T03:07:09;94502.38;;;9.82
24278;BMP280;12394;42.692;23.314;2024-02-26T03:09:34;94503.50;;;9.85
24278;BMP280;12394;42.692;23.314;2024-02-26T03:12:00;94486.81;;;9.75
24278;BMP280;12394;42.692;23.314;2024-02-26T03:14:25;94508.28;;;9.90
24278;BMP280;12394;42.692;23.314;2024-02-26T03:16:54;94501.63;;;9.86
24278;BMP280;12394;42.692;23.314;2024-02-26T03:19:20;94502.69;;;9.88
24278;BMP280;12394;42.692;23.314;2024-02-26T03:21:46;94498.56;;;9.91
24278;BMP280;12394;42.692;23.314;2024-02-26T03:24:11;94515.72;;;9.92
24278;BMP280;12394;42.692;23.314;2024-02-26T03:26:37;94492.63;;;9.87
24278;BMP280;12394;42.692;23.314;2024-02-26T03:29:04;94487.03;;;9.88
24278;BMP280;12394;42.692;23.314;2024-02-26T03:31:29;94487.44;;;9.83
24278;BMP280;12394;42.692;23.314;2024-02-26T03:33:55;94478.13;;;9.82
24278;BMP280;12394;42.692;23.314;2024-02-26T03:36:20;94462.97;;;9.70
24278;BMP280;12394;42.692;23.314;2024-02-26T03:38:47;94473.31;;;9.80
24278;BMP280;12394;42.692;23.314;2024-02-26T03:41:13;94475.22;;;9.76
24278;BMP280;12394;42.692;23.314;2024-02-26T03:43:38;94476.41;;;9.68
24278;BMP280;12394;42.692;23.314;2024-02-26T03:46:04;94480.03;;;9.78
24278;BMP280;12394;42.692;23.314;2024-02-26T03:48:32;94466.28;;;9.74
24278;BMP280;12394;42.692;23.314;2024-02-26T03:50:57;94473.44;;;9.70
24278;BMP280;12394;42.692;23.314;2024-02-26T03:53:23;94458.19;;;9.65
24278;BMP280;12394;42.692;23.314;2024-02-26T03:55:48;94460.31;;;9.73
24278;BMP280;12394;42.692;23.314;2024-02-26T03:58:14;94452.59;;;9.66
24278;BMP280;12394;42.692;23.314;2024-02-26T04:00:42;94459.28;;;9.67
24278;BMP280;12394;42.692;23.314;2024-02-26T04:03:07;94476.31;;;9.79
24278;BMP280;12394;42.692;23.314;2024-02-26T04:05:33;94475.22;;;9.76
24278;BMP280;12394;42.692;23.314;2024-02-26T04:07:58;94469.66;;;9.74
24278;BMP280;12394;42.692;23.314;2024-02-26T04:10:24;94454.34;;;9.73
24278;BMP280;12394;42.692;23.314;2024-02-26T04:12:49;94464.41;;;9.74
24278;BMP280;12394;42.692;23.314;2024-02-26T04:15:15;94462.88;;;9.77
24278;BMP280;12394;42.692;23.314;2024-02-26T04:17:41;94468.09;;;9.77
24278;BMP280;12394;42.692;23.314;2024-02-26T04:20:06;94443.94;;;9.69
24278;BMP280;12394;42.692;23.314;2024-02-26T04:22:32;94455.47;;;9.75
24278;BMP280;12394;42.692;23.314;2024-02-26T04:24:58;94461.00;;;9.77
24278;BMP280;12394;42.692;23.314;2024-02-26T04:27:23;94449.53;;;9.71
24278;BMP280;12394;42.692;23.314;2024-02-26T04:29:49;94443.03;;;9.83
24278;BMP280;12394;42.692;23.314;2024-02-26T04:32:14;94458.84;;;10.03
24278;BMP280;12394;42.692;23.314;2024-02-26T04:34:40;94453.81;;;9.89
24278;BMP280;12394;42.692;23.314;2024-02-26T04:37:07;94442.72;;;9.77
24278;BMP280;12394;42.692;23.314;2024-02-26T04:39:32;94459.88;;;9.78
24278;BMP280;12394;42.692;23.314;2024-02-26T04:41:58;94460.28;;;9.77
24278;BMP280;12394;42.692;23.314;2024-02-26T04:44:23;94459.56;;;9.76
24278;BMP280;12394;42.692;23.314;2024-02-26T04:46:49;94469.25;;;9.76
24278;BMP280;12394;42.692;23.314;2024-02-26T04:49:14;94477.38;;;9.81
24278;BMP280;12394;42.692;23.314;2024-02-26T04:51:40;94463.69;;;9.74
24278;BMP280;12394;42.692;23.314;2024-02-26T04:54:05;94448.88;;;9.64
24278;BMP280;12394;42.692;23.314;2024-02-26T04:56:31;94467.47;;;9.69
24278;BMP280;12394;42.692;23.314;2024-02-26T04:58:56;94476.34;;;9.75
24278;BMP280;12394;42.692;23.314;2024-02-26T05:01:21;94471.56;;;9.70
24278;BMP280;12394;42.692;23.314;2024-02-26T05:03:47;94471.19;;;9.72
24278;BMP280;12394;42.692;23.314;2024-02-26T05:06:13;94466.03;;;9.65
24278;BMP280;12394;42.692;23.314;2024-02-26T05:08:38;94469.00;;;9.63
24278;BMP280;12394;42.692;23.314;2024-02-26T05:11:04;94490.22;;;9.69
24278;BMP280;12394;42.692;23.314;2024-02-26T05:13:30;94491.34;;;9.68
24278;BMP280;12394;42.692;23.314;2024-02-26T05:15:55;94493.25;;;9.64
24278;BMP280;12394;42.692;23.314;2024-02-26T05:18:24;94425.53;;;9.16
24278;BMP280;12394;42.692;23.314;2024-02-26T05:20:49;94498.19;;;9.58
24278;BMP280;12394;42.692;23.314;2024-02-26T05:23:15;94513.13;;;9.54
24278;BMP280;12394;42.692;23.314;2024-02-26T05:25:40;94513.13;;;9.54
24278;BMP280;12394;42.692;23.314;2024-02-26T05:28:06;94518.34;;;9.54
24278;BMP280;12394;42.692;23.314;2024-02-26T05:30:32;94513.13;;;9.54
24278;BMP280;12394;42.692;23.314;2024-02-26T05:32:57;94515.38;;;9.56
24278;BMP280;12394;42.692;23.314;2024-02-26T05:35:23;94509.81;;;9.50
24278;BMP280;12394;42.692;23.314;2024-02-26T05:37:48;94525.06;;;9.55
24278;BMP280;12394;42.692;23.314;2024-02-26T05:40:14;94530.28;;;9.55
24278;BMP280;12394;42.692;23.314;2024-02-26T05:42:39;94525.06;;;9.55
24278;BMP280;12394;42.692;23.314;2024-02-26T05:45:06;94531.78;;;9.56
24278;BMP280;12394;42.692;23.314;2024-02-26T05:47:34;94532.84;;;9.62
24278;BMP280;12394;42.692;23.314;2024-02-26T05:50:01;94529.44;;;9.65
24278;BMP280;12394;42.692;23.314;2024-02-26T05:52:27;94514.97;;;9.57
24278;BMP280;12394;42.692;23.314;2024-02-26T05:54:53;94527.56;;;9.66
24278;BMP280;12394;42.692;23.314;2024-02-26T05:57:19;94530.13;;;9.69
24278;BMP280;12394;42.692;23.314;2024-02-26T05:59:44;94530.84;;;9.73
24278;BMP280;12394;42.692;23.314;2024-02-26T06:02:10;94517.03;;;9.73
24278;BMP280;12394;42.692;23.314;2024-02-26T06:04:36;94533.81;;;9.75
24278;BMP280;12394;42.692;23.314;2024-02-26T06:07:01;94513.69;;;9.72
24278;BMP280;12394;42.692;23.314;2024-02-26T06:09:27;94531.81;;;9.87
24278;BMP280;12394;42.692;23.314;2024-02-26T06:11:52;94547.13;;;9.88
24278;BMP280;12394;42.692;23.314;2024-02-26T06:14:18;94534.00;;;9.92
24278;BMP280;12394;42.692;23.314;2024-02-26T06:16:44;94537.28;;;9.99
24278;BMP280;12394;42.692;23.314;2024-02-26T06:19:10;94545.41;;;10.05
24278;BMP280;12394;42.692;23.314;2024-02-26T06:21:36;94544.28;;;10.06
24278;BMP280;12394;42.692;23.314;2024-02-26T06:24:01;94546.09;;;10.12
24278;BMP280;12394;42.692;23.314;2024-02-26T06:26:27;94537.16;;;10.10
24278;BMP280;12394;42.692;23.314;2024-02-26T06:28:54;94550.88;;;10.21
24278;BMP280;12394;42.692;23.314;2024-02-26T06:31:21;94545.16;;;10.30
24278;BMP280;12394;42.692;23.314;2024-02-26T06:33:48;94550.44;;;10.26
24278;BMP280;12394;42.692;23.314;2024-02-26T06:36:15;94546.78;;;10.20
24278;BMP280;12394;42.692;23.314;2024-02-26T06:38:40;94540.84;;;10.16
24278;BMP280;12394;42.692;23.314;2024-02-26T06:41:06;94554.78;;;10.36
24278;BMP280;12394;42.692;23.314;2024-02-26T06:43:31;94549.66;;;10.29
24278;BMP280;12394;42.692;23.314;2024-02-26T06:45:57;94553.38;;;10.28
24278;BMP280;12394;42.692;23.314;2024-02-26T06:48:24;94547.50;;;10.20
24278;BMP280;12394;42.692;23.314;2024-02-26T06:50:50;94546.66;;;10.31
24278;BMP280;12394;42.692;23.314;2024-02-26T06:53:15;94545.97;;;10.23
24278;BMP280;12394;42.692;23.314;2024-02-26T06:55:42;94550.72;;;10.32
24278;BMP280;12394;42.692;23.314;2024-02-26T06:58:08;94549.69;;;10.25
24278;BMP280;12394;42.692;23.314;2024-02-26T07:00:33;94541.53;;;10.20
24278;BMP280;12394;42.692;23.314;2024-02-26T07:02:59;94539.88;;;10.33
24278;BMP280;12394;42.692;23.314;2024-02-26T07:05:24;94532.53;;;10.24
24278;BMP280;12394;42.692;23.314;2024-02-26T07:07:49;94538.56;;;10.18
24278;BMP280;12394;42.692;23.314;2024-02-26T07:10:15;94540.31;;;10.28
24278;BMP280;12394;42.692;23.314;2024-02-26T07:12:40;94552.94;;;10.33
24278;BMP280;12394;42.692;23.314;2024-02-26T07:15:07;94550.34;;;10.33
24278;BMP280;12394;42.692;23.314;2024-02-26T07:17:33;94564.53;;;10.32
24278;BMP280;12394;42.692;23.314;2024-02-26T07:19:59;94557.00;;;10.38
24278;BMP280;12394;42.692;23.314;2024-02-26T07:22:25;94570.38;;;10.43
24278;BMP280;12394;42.692;23.314;2024-02-26T07:24:51;94564.38;;;10.46
24278;BMP280;12394;42.692;23.314;2024-02-26T07:27:18;94561.66;;;10.53
24278;BMP280;12394;42.692;23.314;2024-02-26T07:29:43;94566.78;;;10.60
24278;BMP280;12394;42.692;23.314;2024-02-26T07:32:09;94570.09;;;10.64
24278;BMP280;12394;42.692;23.314;2024-02-26T07:34:35;94554.34;;;10.68
24278;BMP280;12394;42.692;23.314;2024-02-26T07:37:03;94566.31;;;10.69
24278;BMP280;12394;42.692;23.314;2024-02-26T07:39:28;94561.00;;;10.76
24278;BMP280;12394;42.692;23.314;2024-02-26T07:41:54;94568.66;;;10.87
24278;BMP280;12394;42.692;23.314;2024-02-26T07:44:19;94571.34;;;10.83
24278;BMP280;12394;42.692;23.314;2024-02-26T07:46:45;94560.13;;;10.83
24278;BMP280;12394;42.692;23.314;2024-02-26T07:49:10;94567.34;;;11.02
24278;BMP280;12394;42.692;23.314;2024-02-26T07:51:36;94562.78;;;11.06
24278;BMP280;12394;42.692;23.314;2024-02-26T07:54:02;94554.53;;;11.07
24278;BMP280;12394;42.692;23.314;2024-02-26T07:56:27;94564.50;;;11.16
24278;BMP280;12394;42.692;23.314;2024-02-26T07:58:52;94570.88;;;11.15
24278;BMP280;12394;42.692;23.314;2024-02-26T08:01:18;94561.97;;;11.09
24278;BMP280;12394;42.692;23.314;2024-02-26T08:03:43;94565.56;;;11.19
24278;BMP280;12394;42.692;23.314;2024-02-26T08:06:09;94565.41;;;11.29
24278;BMP280;12394;42.692;23.314;2024-02-26T08:08:34;94557.94;;;11.28
24278;BMP280;12394;42.692;23.314;2024-02-26T08:11:00;94543.94;;;11.38
24278;BMP280;12394;42.692;23.314;2024-02-26T08:13:26;94557.25;;;11.47
24278;BMP280;12394;42.692;23.314;2024-02-26T08:15:52;94558.81;;;11.64
24278;BMP280;12394;42.692;23.314;2024-02-26T08:18:18;94554.03;;;11.82
24278;BMP280;12394;42.692;23.314;2024-02-26T08:20:44;94549.88;;;12.04
24278;BMP280;12394;42.692;23.314;2024-02-26T08:23:10;94554.38;;;11.84
24278;BMP280;12394;42.692;23.314;2024-02-26T08:25:35;94536.63;;;11.92
24278;BMP280;12394;42.692;23.314;2024-02-26T08:28:01;94541.34;;;12.00
24278;BMP280;12394;42.692;23.314;2024-02-26T08:30:27;94563.91;;;12.14
24278;BMP280;12394;42.692;23.314;2024-02-26T08:32:52;94551.00;;;12.43
24278;BMP280;12394;42.692;23.314;2024-02-26T08:35:19;94551.75;;;12.60
24278;BMP280;12394;42.692;23.314;2024-02-26T08:37:45;94554.00;;;12.77
24278;BMP280;12394;42.692;23.314;2024-02-26T08:40:11;94539.66;;;12.98
24278;BMP280;12394;42.692;23.314;2024-02-26T08:42:37;94558.47;;;13.13
24278;BMP280;12394;42.692;23.314;2024-02-26T08:45:02;94550.91;;;13.31
24278;BMP280;12394;42.692;23.314;2024-02-26T08:47:28;94553.00;;;13.68
24278;BMP280;12394;42.692;23.314;2024-02-26T08:49:54;94552.34;;;13.93
24278;BMP280;12394;42.692;23.314;2024-02-26T08:52:20;94546.00;;;14.19
24278;BMP280;12394;42.692;23.314;2024-02-26T08:55:07;94560.59;;;14.37
24278;BMP280;12394;42.692;23.314;2024-02-26T08:57:52;94550.28;;;14.42
24278;BMP280;12394;42.692;23.314;2024-02-26T09:00:18;94561.97;;;14.54
24278;BMP280;12394;42.692;23.314;2024-02-26T09:02:47;94559.09;;;14.36
24278;BMP280;12394;42.692;23.314;2024-02-26T09:05:12;94556.72;;;14.54
24278;BMP280;12394;42.692;23.314;2024-02-26T09:07:38;94542.72;;;14.57
24278;BMP280;12394;42.692;23.314;2024-02-26T09:10:05;94537.03;;;14.46
24278;BMP280;12394;42.692;23.314;2024-02-26T09:12:31;94507.28;;;14.20
24278;BMP280;12394;42.692;23.314;2024-02-26T09:14:56;94550.00;;;14.53
24278;BMP280;12394;42.692;23.314;2024-02-26T09:17:23;94547.97;;;14.44
24278;BMP280;12394;42.692;23.314;2024-02-26T09:19:48;94543.88;;;14.43
24278;BMP280;12394;42.692;23.314;2024-02-26T09:22:14;94548.69;;;14.45
24278;BMP280;12394;42.692;23.314;2024-02-26T09:24:39;94523.56;;;14.56
24278;BMP280;12394;42.692;23.314;2024-02-26T09:27:05;94534.38;;;15.09
24278;BMP280;12394;42.692;23.314;2024-02-26T09:29:30;94545.63;;;15.69
24278;BMP280;12394;42.692;23.314;2024-02-26T09:31:56;94538.72;;;16.06
24278;BMP280;12394;42.692;23.314;2024-02-26T09:34:21;94530.81;;;16.06
24278;BMP280;12394;42.692;23.314;2024-02-26T09:36:48;94540.13;;;16.20
24278;BMP280;12394;42.692;23.314;2024-02-26T09:39:14;94531.66;;;16.25
24278;BMP280;12394;42.692;23.314;2024-02-26T09:41:45;94540.97;;;16.38
24278;BMP280;12394;42.692;23.314;2024-02-26T09:44:12;94535.75;;;16.48
24278;BMP280;12394;42.692;23.314;2024-02-26T09:46:40;94528.41;;;16.52
24278;BMP280;12394;42.692;23.314;2024-02-26T09:49:08;94528.41;;;16.52
24278;BMP280;12394;42.692;23.314;2024-02-26T09:51:34;94526.81;;;16.54
24278;BMP280;12394;42.692;23.314;2024-02-26T09:54:00;94528.38;;;16.42
24278;BMP280;12394;42.692;23.314;2024-02-26T09:56:28;94516.63;;;16.65
24278;BMP280;12394;42.692;23.314;2024-02-26T09:58:56;94525.16;;;16.69
24278;BMP280;12394;42.692;23.314;2024-02-26T10:01:23;94522.22;;;16.45
24278;BMP280;12394;42.692;23.314;2024-02-26T10:03:55;94522.22;;;16.45
24278;BMP280;12394;42.692;23.314;2024-02-26T10:06:22;94516.31;;;16.11
24278;BMP280;12394;42.692;23.314;2024-02-26T10:08:48;94505.28;;;16.03
24278;BMP280;12394;42.692;23.314;2024-02-26T10:11:14;94510.97;;;16.23
24278;BMP280;12394;42.692;23.314;2024-02-26T10:13:40;94507.94;;;16.34
24278;BMP280;12394;42.692;23.314;2024-02-26T10:16:06;94509.75;;;16.46
24278;BMP280;12394;42.692;23.314;2024-02-26T10:18:52;94503.81;;;16.02
24278;BMP280;12394;42.692;23.314;2024-02-26T10:21:21;94503.78;;;16.24
24278;BMP280;12394;42.692;23.314;2024-02-26T10:23:47;94487.88;;;15.84
24278;BMP280;12394;42.692;23.314;2024-02-26T10:26:14;94508.63;;;16.03
24278;BMP280;12394;42.692;23.314;2024-02-26T10:28:42;94496.81;;;15.86
24278;BMP280;12394;42.692;23.314;2024-02-26T10:31:08;94498.09;;;15.82
24278;BMP280;12394;42.692;23.314;2024-02-26T10:33:38;94486.47;;;15.70
24278;BMP280;12394;42.692;23.314;2024-02-26T10:36:04;94477.25;;;15.75
24278;BMP280;12394;42.692;23.314;2024-02-26T10:38:32;94477.19;;;15.87
24278;BMP280;12394;42.692;23.314;2024-02-26T10:40:57;94477.56;;;15.77
24278;BMP280;12394;42.692;23.314;2024-02-26T10:43:23;94486.34;;;15.39
24278;BMP280;12394;42.692;23.314;2024-02-26T10:45:48;94472.28;;;15.21
24278;BMP280;12394;42.692;23.314;2024-02-26T10:48:14;94469.78;;;15.39
24278;BMP280;12394;42.692;23.314;2024-02-26T10:50:40;94465.00;;;15.46
24278;BMP280;12394;42.692;23.314;2024-02-26T10:53:17;94472.72;;;15.53
24278;BMP280;12394;42.692;23.314;2024-02-26T10:55:48;94467.50;;;15.63
24278;BMP280;12394;42.692;23.314;2024-02-26T10:58:14;94465.66;;;15.50
24278;BMP280;12394;42.692;23.314;2024-02-26T11:00:42;94469.19;;;15.35
24278;BMP280;12394;42.692;23.314;2024-02-26T11:03:09;94466.41;;;15.38
24278;BMP280;12394;42.692;23.314;2024-02-26T11:05:36;94463.50;;;15.24
24278;BMP280;12394;42.692;23.314;2024-02-26T11:08:04;94463.03;;;15.16
24278;BMP280;12394;42.692;23.314;2024-02-26T11:10:31;94449.19;;;15.25
24278;BMP280;12394;42.692;23.314;2024-02-26T11:12:59;94455.47;;;15.40
24278;BMP280;12394;42.692;23.314;2024-02-26T11:15:25;94449.84;;;15.50
24278;BMP280;12394;42.692;23.314;2024-02-26T11:17:52;94464.28;;;15.46
24278;BMP280;12394;42.692;23.314;2024-02-26T11:20:19;94461.97;;;15.48
24278;BMP280;12394;42.692;23.314;2024-02-26T11:22:45;94448.44;;;15.24
24278;BMP280;12394;42.692;23.314;2024-02-26T11:25:11;94464.16;;;15.49
24278;BMP280;12394;42.692;23.314;2024-02-26T11:27:48;94460.94;;;15.33
24278;BMP280;12394;42.692;23.314;2024-02-26T11:30:15;94452.84;;;15.27
24278;BMP280;12394;42.692;23.314;2024-02-26T11:32:46;94464.56;;;15.26
24278;BMP280;12394;42.692;23.314;2024-02-26T11:35:12;94451.53;;;15.10
24278;BMP280;12394;42.692;23.314;2024-02-26T11:37:41;94451.47;;;15.01
24278;BMP280;12394;42.692;23.314;2024-02-26T11:40:11;94440.72;;;14.95
24278;BMP280;12394;42.692;23.314;2024-02-26T11:42:43;94444.66;;;14.78
24278;BMP280;12394;42.692;23.314;2024-02-26T11:48:03;94410.84;;;14.77
24278;BMP280;12394;42.692;23.314;2024-02-26T11:50:36;94434.06;;;15.03
24278;BMP280;12394;42.692;23.314;2024-02-26T11:53:30;94438.69;;;14.99
24278;BMP280;12394;42.692;23.314;2024-02-26T11:59:09;94429.19;;;14.67
24278;BMP280;12394;42.692;23.314;2024-02-26T12:01:42;94403.59;;;14.68
24278;BMP280;12394;42.692;23.314;2024-02-26T12:06:47;94431.13;;;15.01
24278;BMP280;12394;42.692;23.314;2024-02-26T12:09:33;94431.75;;;15.05
24278;BMP280;12394;42.692;23.314;2024-02-26T12:12:01;94437.69;;;15.19
24278;BMP280;12394;42.692;23.314;2024-02-26T12:14:27;94429.44;;;15.29
24278;BMP280;12394;42.692;23.314;2024-02-26T12:16:53;94445.13;;;15.33
24278;BMP280;12394;42.692;23.314;2024-02-26T12:19:18;94438.56;;;15.16
24278;BMP280;12394;42.692;23.314;2024-02-26T12:21:44;94434.09;;;15.25
24278;BMP280;12394;42.692;23.314;2024-02-26T12:24:11;94444.91;;;15.40
24278;BMP280;12394;42.692;23.314;2024-02-26T12:26:38;94440.41;;;15.62
24278;BMP280;12394;42.692;23.314;2024-02-26T12:29:07;94447.00;;;15.88
24278;BMP280;12394;42.692;23.314;2024-02-26T12:31:33;94448.31;;;15.84
24278;BMP280;12394;42.692;23.314;2024-02-26T12:34:00;94461.19;;;15.82
24278;BMP280;12394;42.692;23.314;2024-02-26T12:36:26;94444.00;;;15.77
24278;BMP280;12394;42.692;23.314;2024-02-26T12:38:52;94444.44;;;15.97
24278;BMP280;12394;42.692;23.314;2024-02-26T12:41:17;94459.56;;;16.06
24278;BMP280;12394;42.692;23.314;2024-02-26T12:43:43;94443.81;;;15.93
24278;BMP280;12394;42.692;23.314;2024-02-26T12:46:09;94448.44;;;16.11
24278;BMP280;12394;42.692;23.314;2024-02-26T12:48:36;94448.78;;;16.22
24278;BMP280;12394;42.692;23.314;2024-02-26T12:51:02;94453.34;;;16.31
24278;BMP280;12394;42.692;23.314;2024-02-26T12:53:28;94442.34;;;16.23
24278;BMP280;12394;42.692;23.314;2024-02-26T12:55:56;94431.47;;;16.12
24278;BMP280;12394;42.692;23.314;2024-02-26T12:58:22;94427.84;;;16.28
24278;BMP280;12394;42.692;23.314;2024-02-26T13:00:54;94436.91;;;16.27
24278;BMP280;12394;42.692;23.314;2024-02-26T13:03:22;94424.28;;;16.22
24278;BMP280;12394;42.692;23.314;2024-02-26T13:05:48;94433.00;;;16.40
24278;BMP280;12394;42.692;23.314;2024-02-26T13:08:18;94435.13;;;16.55
24278;BMP280;12394;42.692;23.314;2024-02-26T13:10:45;94434.50;;;16.41
24278;BMP280;12394;42.692;23.314;2024-02-26T13:13:14;94430.41;;;16.50
24278;BMP280;12394;42.692;23.314;2024-02-26T13:15:40;94424.25;;;16.53
24278;BMP280;12394;42.692;23.314;2024-02-26T13:18:10;94433.47;;;16.39
24278;BMP280;12394;42.692;23.314;2024-02-26T13:20:36;94437.69;;;16.36
24278;BMP280;12394;42.692;23.314;2024-02-26T13:23:07;94442.97;;;16.36
24278;BMP280;12394;42.692;23.314;2024-02-26T13:25:33;94438.13;;;16.26
24278;BMP280;12394;42.692;23.314;2024-02-26T13:28:15;94431.59;;;16.18
24278;BMP280;12394;42.692;23.314;2024-02-26T13:30:52;94445.31;;;16.03
24278;BMP280;12394;42.692;23.314;2024-02-26T13:33:18;94442.56;;;16.07
24278;BMP280;12394;42.692;23.314;2024-02-26T13:35:44;94433.00;;;16.00
24278;BMP280;12394;42.692;23.314;2024-02-26T13:38:10;94438.03;;;16.08
24278;BMP280;12394;42.692;23.314;2024-02-26T13:40:37;94437.41;;;16.03
24278;BMP280;12394;42.692;23.314;2024-02-26T13:43:03;94445.22;;;16.07
24278;BMP280;12394;42.692;23.314;2024-02-26T13:45:28;94447.44;;;16.18
24278;BMP280;12394;42.692;23.314;2024-02-26T13:47:54;94455.75;;;16.07
24278;BMP280;12394;42.692;23.314;2024-02-26T13:50:26;94446.88;;;15.92
24278;BMP280;12394;42.692;23.314;2024-02-26T13:52:51;94441.97;;;15.81
24278;BMP280;12394;42.692;23.314;2024-02-26T13:55:19;94452.75;;;15.96
24278;BMP280;12394;42.692;23.314;2024-02-26T13:57:46;94443.56;;;16.00
24278;BMP280;12394;42.692;23.314;2024-02-26T14:00:12;94435.69;;;16.10
24278;BMP280;12394;42.692;23.314;2024-02-26T14:02:38;94442.44;;;16.11
24278;BMP280;12394;42.692;23.314;2024-02-26T14:05:03;94437.53;;;16.00
24278;BMP280;12394;42.692;23.314;2024-02-26T14:07:29;94444.47;;;16.07